createdAt,value
2023-09-01T00:02:17.724Z,13.80
2023-09-01T00:04:45.707Z,13.80
2023-09-01T00:07:13.583Z,14.00
2023-09-01T00:09:41.583Z,13.90
2023-09-01T00:12:09.754Z,14.10
2023-09-01T00:14:39.114Z,13.90
2023-09-01T00:17:07.265Z,13.80
2023-09-01T00:19:35.448Z,14.10
2023-09-01T00:22:03.939Z,13.80
2023-09-01T00:24:33.257Z,13.90
2023-09-01T00:27:01.137Z,13.80
2023-09-01T00:29:29.262Z,13.70
2023-09-01T00:31:58.485Z,13.50
2023-09-01T00:34:26.390Z,13.50
2023-09-01T00:36:54.338Z,13.80
2023-09-01T00:39:22.159Z,13.60
2023-09-01T00:41:50.026Z,13.60
2023-09-01T00:44:17.871Z,13.70
2023-09-01T00:46:47.594Z,13.70
2023-09-01T00:49:19.095Z,13.70
2023-09-01T00:51:47.994Z,13.50
2023-09-01T00:54:15.986Z,13.50
2023-09-01T00:56:44.268Z,13.60
2023-09-01T00:59:12.103Z,13.50
2023-09-01T01:01:40.016Z,13.50
2023-09-01T01:04:09.128Z,13.50
2023-09-01T01:06:42.183Z,13.70
2023-09-01T01:09:13.386Z,13.70
2023-09-01T01:11:46.061Z,13.70
2023-09-01T01:14:16.597Z,13.70
2023-09-01T01:16:44.689Z,13.60
2023-09-01T01:19:18.082Z,13.60
2023-09-01T01:21:47.466Z,13.80
2023-09-01T01:24:16.814Z,13.70
2023-09-01T01:26:44.819Z,13.50
2023-09-01T01:29:12.669Z,13.60
2023-09-01T01:31:40.718Z,13.70
2023-09-01T01:34:12.938Z,13.50
2023-09-01T01:36:47.948Z,13.60
2023-09-01T01:39:17.899Z,13.60
2023-09-01T01:41:49.106Z,13.60
2023-09-01T01:44:16.979Z,13.70
2023-09-01T01:46:44.791Z,13.80
2023-09-01T01:49:12.627Z,13.70
2023-09-01T01:51:40.437Z,13.60
2023-09-01T01:54:08.278Z,13.50
2023-09-01T01:56:37.458Z,13.70
2023-09-01T01:59:05.943Z,13.70
2023-09-01T02:01:33.943Z,13.60
2023-09-01T02:04:01.786Z,13.60
2023-09-01T02:06:29.598Z,13.80
2023-09-01T02:08:57.424Z,13.70
2023-09-01T02:11:25.311Z,13.50
2023-09-01T02:13:54.472Z,13.60
2023-09-01T02:16:22.718Z,13.50
2023-09-01T02:18:50.593Z,13.60
2023-09-01T02:21:20.886Z,13.60
2023-09-01T02:23:48.823Z,13.40
2023-09-01T02:26:19.427Z,13.40
2023-09-01T02:28:47.377Z,13.60
2023-09-01T02:31:16.567Z,13.50
2023-09-01T02:33:44.599Z,13.30
2023-09-01T02:36:29.203Z,13.20
2023-09-01T02:38:57.387Z,13.40
2023-09-01T02:41:25.358Z,13.50
2023-09-01T02:43:53.382Z,13.40
2023-09-01T02:46:22.621Z,13.30
2023-09-01T02:48:50.499Z,13.30
2023-09-01T02:51:18.365Z,13.50
2023-09-01T02:53:46.189Z,13.30
2023-09-01T02:56:14.036Z,13.50
2023-09-01T02:58:41.866Z,13.30
2023-09-01T03:01:10.356Z,13.20
2023-09-01T03:03:41.569Z,13.50
2023-09-01T03:06:10.310Z,13.30
2023-09-01T03:08:38.193Z,13.30
2023-09-01T03:11:06.279Z,13.70
2023-09-01T03:13:34.117Z,13.70
2023-09-01T03:16:02.292Z,13.40
2023-09-01T03:18:30.366Z,13.50
2023-09-01T03:21:05.208Z,13.50
2023-09-01T03:23:33.065Z,13.50
2023-09-01T03:26:00.888Z,13.70
2023-09-01T03:28:29.302Z,13.40
2023-09-01T03:30:57.107Z,13.20
2023-09-01T03:33:24.965Z,13.20
2023-09-01T03:35:52.909Z,13.30
2023-09-01T03:38:22.107Z,13.40
2023-09-01T03:40:49.965Z,13.40
2023-09-01T03:43:17.766Z,13.30
2023-09-01T03:45:45.969Z,13.40
2023-09-01T03:48:13.976Z,13.60
2023-09-01T03:50:41.829Z,13.50
2023-09-01T03:53:09.655Z,13.60
2023-09-01T03:55:39.490Z,13.80
2023-09-01T03:58:07.351Z,13.80
2023-09-01T04:00:35.160Z,13.70
2023-09-01T04:03:03.723Z,13.50
2023-09-01T04:05:31.560Z,13.60
2023-09-01T04:07:59.475Z,13.60
2023-09-01T04:10:29.297Z,13.70
2023-09-01T04:12:59.200Z,13.50
2023-09-01T04:15:27.025Z,13.60
2023-09-01T04:17:54.859Z,13.50
2023-09-01T04:20:22.695Z,13.60
2023-09-01T04:22:50.528Z,13.60
2023-09-01T04:25:18.396Z,13.90
2023-09-01T04:27:46.214Z,13.70
2023-09-01T04:30:15.725Z,13.60
2023-09-01T04:32:45.192Z,13.80
2023-09-01T04:35:13.286Z,13.70
2023-09-01T04:37:41.084Z,13.80
2023-09-01T04:40:10.464Z,13.70
2023-09-01T04:42:38.272Z,13.70
2023-09-01T04:45:06.927Z,13.60
2023-09-01T04:47:36.088Z,13.70
2023-09-01T04:50:04.201Z,13.80
2023-09-01T04:52:42.735Z,13.80
2023-09-01T04:55:11.703Z,13.70
2023-09-01T04:57:39.547Z,13.80
2023-09-01T05:00:16.970Z,13.60
2023-09-01T05:02:47.179Z,13.70
2023-09-01T05:05:15.121Z,13.70
2023-09-01T05:07:42.946Z,13.80
2023-09-01T05:10:11.577Z,13.70
2023-09-01T05:12:39.448Z,13.80
2023-09-01T05:15:08.314Z,13.80
2023-09-01T05:17:36.200Z,13.80
2023-09-01T05:20:08.561Z,13.90
2023-09-01T05:22:36.476Z,13.80
2023-09-01T05:25:04.972Z,14.00
2023-09-01T05:27:32.843Z,13.90
2023-09-01T05:30:00.762Z,14.00
2023-09-01T05:32:28.708Z,14.00
2023-09-01T05:34:56.577Z,14.00
2023-09-01T05:37:25.765Z,14.20
2023-09-01T05:39:53.570Z,14.10
2023-09-01T05:42:21.393Z,14.00
2023-09-01T05:44:49.303Z,14.10
2023-09-01T05:47:17.122Z,14.20
2023-09-01T05:49:44.990Z,14.30
2023-09-01T05:52:12.797Z,14.30
2023-09-01T05:54:41.992Z,14.40
2023-09-01T05:57:09.832Z,14.30
2023-09-01T05:59:37.650Z,14.30
2023-09-01T06:02:05.667Z,14.30
2023-09-01T06:04:33.685Z,14.30
2023-09-01T06:07:01.585Z,14.30
2023-09-01T06:09:29.480Z,14.20
2023-09-01T06:11:58.633Z,14.40
2023-09-01T06:14:26.533Z,14.50
2023-09-01T06:16:54.369Z,14.40
2023-09-01T06:19:22.304Z,14.40
2023-09-01T06:21:50.168Z,14.40
2023-09-01T06:24:18.008Z,14.40
2023-09-01T06:26:45.908Z,14.50
2023-09-01T06:29:15.083Z,14.40
2023-09-01T06:31:42.885Z,14.50
2023-09-01T06:34:10.691Z,14.50
2023-09-01T06:36:38.497Z,14.30
2023-09-01T06:39:06.774Z,14.50
2023-09-01T06:41:34.882Z,14.50
2023-09-01T06:44:03.556Z,14.70
2023-09-01T06:46:32.811Z,14.60
2023-09-01T06:49:00.649Z,14.50
2023-09-01T06:51:28.459Z,14.60
2023-09-01T06:53:56.439Z,14.70
2023-09-01T06:56:24.338Z,14.70
2023-09-01T06:58:52.168Z,14.70
2023-09-01T07:01:20.054Z,14.80
2023-09-01T07:03:49.301Z,14.90
2023-09-01T07:06:17.173Z,14.90
2023-09-01T07:08:45.187Z,14.90
2023-09-01T07:11:15.383Z,15.00
2023-09-01T07:13:43.303Z,15.10
2023-09-01T07:16:11.207Z,15.20
2023-09-01T07:18:39.058Z,15.30
2023-09-01T07:21:08.303Z,15.30
2023-09-01T07:23:36.147Z,15.30
2023-09-01T07:26:04.907Z,15.40
2023-09-01T07:28:32.703Z,15.40
2023-09-01T07:31:00.625Z,15.50
2023-09-01T07:33:31.460Z,15.50
2023-09-01T07:35:59.294Z,15.80
2023-09-01T07:38:28.490Z,15.80
2023-09-01T07:40:56.333Z,16.20
2023-09-01T07:43:24.137Z,16.40
2023-09-01T07:45:51.994Z,16.70
2023-09-01T07:48:22.775Z,17.00
2023-09-01T07:50:51.231Z,17.00
2023-09-01T07:53:19.351Z,17.00
2023-09-01T07:55:48.597Z,17.00
2023-09-01T07:58:16.755Z,17.30
2023-09-01T08:00:44.928Z,18.10
2023-09-01T08:03:12.988Z,18.60
2023-09-01T08:05:40.974Z,18.90
2023-09-01T08:08:08.901Z,18.80
2023-09-01T08:10:36.763Z,19.30
2023-09-01T08:13:06.387Z,19.20
2023-09-01T08:15:34.411Z,19.00
2023-09-01T08:18:02.267Z,18.90
2023-09-01T08:20:30.130Z,18.60
2023-09-01T08:22:57.978Z,18.60
2023-09-01T08:25:25.797Z,18.60
2023-09-01T08:27:53.612Z,18.80
2023-09-01T08:30:22.976Z,19.10
2023-09-01T08:32:50.869Z,19.30
2023-09-01T08:35:18.815Z,19.40
2023-09-01T08:37:46.610Z,19.40
2023-09-01T08:40:14.456Z,19.50
2023-09-01T08:42:47.523Z,19.70
2023-09-01T08:45:15.945Z,20.30
2023-09-01T08:47:47.121Z,20.60
2023-09-01T08:50:15.178Z,20.70
2023-09-01T08:52:43.620Z,20.70
2023-09-01T08:55:12.588Z,21.50
2023-09-01T08:57:40.528Z,21.20
2023-09-01T09:00:10.014Z,21.80
2023-09-01T09:02:38.747Z,21.80
2023-09-01T09:05:09.782Z,22.20
2023-09-01T09:07:37.650Z,22.40
2023-09-01T09:10:06.632Z,22.10
2023-09-01T09:12:38.361Z,22.40
2023-09-01T09:15:06.946Z,21.90
2023-09-01T09:17:45.780Z,22.30
2023-09-01T09:20:16.486Z,22.70
2023-09-01T09:22:54.154Z,23.00
2023-09-01T09:25:29.855Z,22.90
2023-09-01T09:27:58.921Z,22.80
2023-09-01T09:30:27.837Z,23.00
2023-09-01T09:33:03.606Z,23.10
2023-09-01T09:35:34.188Z,24.10
2023-09-01T09:38:03.131Z,24.70
2023-09-01T09:40:30.982Z,24.20
2023-09-01T09:42:59.471Z,24.20
2023-09-01T09:45:29.453Z,24.40
2023-09-01T09:47:58.737Z,23.90
2023-09-01T09:50:26.902Z,24.60
2023-09-01T09:53:01.069Z,25.00
2023-09-01T09:55:30.166Z,24.80
2023-09-01T09:58:08.333Z,24.80
2023-09-01T10:00:40.349Z,25.10
2023-09-01T10:03:08.332Z,25.00
2023-09-01T10:05:37.029Z,25.00
2023-09-01T10:08:08.024Z,25.00
2023-09-01T10:10:36.653Z,24.60
2023-09-01T10:13:05.796Z,24.50
2023-09-01T10:15:34.096Z,24.40
2023-09-01T10:18:03.028Z,24.70
2023-09-01T10:20:31.446Z,25.10
2023-09-01T10:22:59.345Z,24.70
2023-09-01T10:25:28.728Z,24.90
2023-09-01T10:28:07.186Z,24.70
2023-09-01T10:30:36.133Z,24.30
2023-09-01T10:33:13.752Z,24.40
2023-09-01T10:35:43.401Z,24.10
2023-09-01T10:38:12.593Z,23.90
2023-09-01T10:40:45.843Z,24.20
2023-09-01T10:43:13.744Z,24.40
2023-09-01T10:45:41.725Z,24.80
2023-09-01T10:48:13.775Z,25.20
2023-09-01T10:50:44.055Z,25.50
2023-09-01T10:53:31.105Z,26.00
2023-09-01T10:56:10.642Z,26.20
2023-09-01T10:58:42.545Z,26.40
2023-09-01T11:01:32.632Z,26.10
2023-09-01T11:04:30.291Z,25.70
2023-09-01T11:07:05.432Z,25.50
2023-09-01T11:10:04.023Z,25.80
2023-09-01T11:12:36.392Z,26.20
2023-09-01T11:15:05.666Z,25.90
2023-09-01T11:17:41.649Z,26.30
2023-09-01T11:20:11.247Z,26.20
2023-09-01T11:22:40.000Z,26.20
2023-09-01T11:25:11.922Z,26.10
2023-09-01T11:27:44.159Z,26.20
2023-09-01T11:30:12.542Z,26.40
2023-09-01T11:32:40.576Z,26.30
2023-09-01T11:35:10.685Z,26.00
2023-09-01T11:37:39.959Z,25.90
2023-09-01T11:40:10.191Z,26.30
2023-09-01T11:42:38.496Z,25.70
2023-09-01T11:45:09.196Z,26.00
2023-09-01T11:47:37.057Z,26.80
2023-09-01T11:50:05.195Z,26.50
2023-09-01T11:52:33.077Z,26.30
2023-09-01T11:55:01.280Z,26.30
2023-09-01T11:57:29.120Z,26.10
2023-09-01T11:59:56.950Z,26.00
2023-09-01T12:02:26.147Z,26.10
2023-09-01T12:04:54.038Z,26.40
2023-09-01T12:07:26.029Z,26.30
2023-09-01T12:09:54.529Z,26.60
2023-09-01T12:12:22.411Z,26.50
2023-09-01T12:14:50.407Z,26.80
2023-09-01T12:17:19.567Z,27.00
2023-09-01T12:19:49.813Z,27.00
2023-09-01T12:22:18.290Z,27.00
2023-09-01T12:24:53.230Z,26.90
2023-09-01T12:27:21.152Z,26.80
2023-09-01T12:29:49.053Z,26.90
2023-09-01T12:32:17.059Z,26.80
2023-09-01T12:34:45.064Z,26.60
2023-09-01T12:37:14.408Z,26.90
2023-09-01T12:39:43.629Z,26.50
2023-09-01T12:42:11.503Z,26.30
2023-09-01T12:44:39.968Z,25.90
2023-09-01T12:47:10.176Z,26.40
2023-09-01T12:49:38.886Z,26.90
2023-09-01T12:52:07.446Z,27.10
2023-09-01T12:54:36.605Z,27.00
2023-09-01T12:57:04.546Z,25.90
2023-09-01T12:59:33.450Z,25.70
2023-09-01T13:02:02.238Z,26.00
2023-09-01T13:04:33.110Z,25.50
2023-09-01T13:07:01.023Z,25.70
2023-09-01T13:09:28.850Z,25.40
2023-09-01T13:11:58.024Z,25.60
2023-09-01T13:14:25.887Z,25.70
2023-09-01T13:16:53.827Z,25.60
2023-09-01T13:19:21.662Z,25.80
2023-09-01T13:21:49.541Z,26.40
2023-09-01T13:24:17.588Z,26.90
2023-09-01T13:26:45.416Z,27.10
2023-09-01T13:29:14.621Z,26.20
2023-09-01T13:31:42.481Z,26.10
2023-09-01T13:34:10.318Z,26.60
2023-09-01T13:36:38.166Z,26.00
2023-09-01T13:39:05.991Z,26.80
2023-09-01T13:41:33.835Z,26.30
2023-09-01T13:44:01.708Z,25.60
2023-09-01T13:46:32.687Z,25.20
2023-09-01T13:49:01.032Z,25.40
2023-09-01T13:51:29.520Z,25.50
2023-09-01T13:53:57.602Z,25.60
2023-09-01T13:56:26.002Z,25.40
2023-09-01T13:58:53.867Z,25.40
2023-09-01T14:01:21.751Z,25.20
2023-09-01T14:03:50.986Z,25.00
2023-09-01T14:06:18.933Z,25.00
2023-09-01T14:08:46.737Z,24.80
2023-09-01T14:11:14.556Z,24.70
2023-09-01T14:13:42.370Z,24.80
2023-09-01T14:16:12.298Z,24.80
2023-09-01T14:18:41.452Z,24.70
2023-09-01T14:21:10.804Z,24.70
2023-09-01T14:23:38.639Z,24.60
2023-09-01T14:26:06.454Z,24.70
2023-09-01T14:28:34.737Z,24.70
2023-09-01T14:31:02.623Z,24.70
2023-09-01T14:33:42.063Z,24.90
2023-09-01T14:36:16.702Z,25.00
2023-09-01T14:38:44.604Z,24.90
2023-09-01T14:41:17.375Z,25.30
2023-09-01T14:43:46.271Z,25.50
2023-09-01T14:46:14.286Z,25.30
2023-09-01T14:48:42.158Z,24.80
2023-09-01T14:51:09.998Z,24.70
2023-09-01T14:53:39.187Z,24.50
2023-09-01T14:56:08.022Z,24.70
2023-09-01T14:58:35.900Z,24.80
2023-09-01T15:01:04.125Z,24.80
2023-09-01T15:03:32.282Z,24.90
2023-09-01T15:06:00.180Z,25.30
2023-09-01T15:08:27.983Z,25.10
2023-09-01T15:10:57.115Z,25.00
2023-09-01T15:13:24.973Z,25.20
2023-09-01T15:15:52.814Z,25.00
2023-09-01T15:18:20.729Z,24.70
2023-09-01T15:20:48.538Z,24.80
2023-09-01T15:23:16.574Z,24.90
2023-09-01T15:25:44.550Z,24.80
2023-09-01T15:28:13.757Z,25.20
2023-09-01T15:30:41.598Z,25.20
2023-09-01T15:33:09.461Z,25.10
2023-09-01T15:35:37.728Z,24.60
2023-09-01T15:38:05.767Z,24.30
2023-09-01T15:40:33.739Z,24.40
2023-09-01T15:43:02.080Z,24.20
2023-09-01T15:45:31.278Z,24.40
2023-09-01T15:47:59.236Z,24.20
2023-09-01T15:50:35.391Z,23.90
2023-09-01T15:53:13.263Z,23.70
2023-09-01T15:55:41.124Z,23.50
2023-09-01T15:58:09.471Z,23.40
2023-09-01T16:00:38.953Z,23.30
2023-09-01T16:03:08.313Z,23.30
2023-09-01T16:05:39.890Z,23.30
2023-09-01T16:08:07.703Z,23.30
2023-09-01T16:10:35.760Z,23.20
2023-09-01T16:13:03.756Z,23.10
2023-09-01T16:15:31.849Z,23.00
2023-09-01T16:18:01.105Z,23.20
2023-09-01T16:20:31.112Z,23.50
2023-09-01T16:22:58.988Z,23.50
2023-09-01T16:25:26.923Z,23.40
2023-09-01T16:27:54.850Z,23.40
2023-09-01T16:30:22.997Z,23.50
2023-09-01T16:32:50.873Z,23.50
2023-09-01T16:35:24.356Z,23.50
2023-09-01T16:37:53.638Z,23.10
2023-09-01T16:40:23.970Z,23.00
2023-09-01T16:42:54.112Z,23.00
2023-09-01T16:45:22.337Z,23.10
2023-09-01T16:47:50.234Z,23.20
2023-09-01T16:50:18.260Z,23.20
2023-09-01T16:52:47.438Z,22.80
2023-09-01T16:55:15.396Z,22.70
2023-09-01T16:57:43.425Z,22.50
2023-09-01T17:00:12.383Z,22.60
2023-09-01T17:02:40.199Z,22.40
2023-09-01T17:05:08.948Z,22.40
2023-09-01T17:07:38.363Z,22.30
2023-09-01T17:10:10.417Z,22.20
2023-09-01T17:12:38.262Z,22.20
2023-09-01T17:15:06.697Z,22.20
2023-09-01T17:17:34.603Z,22.00
2023-09-01T17:20:04.003Z,22.30
2023-09-01T17:22:31.890Z,22.20
2023-09-01T17:24:59.740Z,22.20
2023-09-01T17:27:30.684Z,22.10
2023-09-01T17:29:58.975Z,22.10
2023-09-01T17:32:26.848Z,22.10
2023-09-01T17:34:55.814Z,21.80
2023-09-01T17:37:23.742Z,22.00
2023-09-01T17:39:51.633Z,21.70
2023-09-01T17:42:19.458Z,21.50
2023-09-01T17:44:48.656Z,21.30
2023-09-01T17:47:16.476Z,21.10
2023-09-01T17:49:44.367Z,21.10
2023-09-01T17:52:12.203Z,21.10
2023-09-01T17:54:40.021Z,21.00
2023-09-01T17:57:07.970Z,20.90
2023-09-01T17:59:35.924Z,20.70
2023-09-01T18:02:06.069Z,20.40
2023-09-01T18:04:34.116Z,20.40
2023-09-01T18:07:02.032Z,20.20
2023-09-01T18:09:30.446Z,20.00
2023-09-01T18:11:58.268Z,20.10
2023-09-01T18:14:26.114Z,20.00
2023-09-01T18:16:53.966Z,20.00
2023-09-01T18:19:23.304Z,19.90
2023-09-01T18:21:51.138Z,19.80
2023-09-01T18:24:20.764Z,19.90
2023-09-01T18:26:48.621Z,19.60
2023-09-01T18:29:21.229Z,19.60
2023-09-01T18:31:49.723Z,19.40
2023-09-01T18:34:20.094Z,19.20
2023-09-01T18:36:52.642Z,19.10
2023-09-01T18:39:20.519Z,19.20
2023-09-01T18:41:48.442Z,19.30
2023-09-01T18:44:16.314Z,19.30
2023-09-01T18:46:44.145Z,19.20
2023-09-01T18:49:12.641Z,19.00
2023-09-01T18:51:40.515Z,19.10
2023-09-01T18:54:13.929Z,19.20
2023-09-01T18:56:41.748Z,19.30
2023-09-01T18:59:09.557Z,18.90
2023-09-01T19:01:37.750Z,19.10
2023-09-01T19:04:08.912Z,18.90
2023-09-01T19:06:37.610Z,18.70
2023-09-01T19:09:05.544Z,18.60
2023-09-01T19:11:34.723Z,18.40
2023-09-01T19:14:04.434Z,18.60
2023-09-01T19:16:32.674Z,18.40
2023-09-01T19:19:00.692Z,18.40
2023-09-01T19:21:28.625Z,18.30
2023-09-01T19:23:56.526Z,18.20
2023-09-01T19:26:29.112Z,18.30
2023-09-01T19:29:00.985Z,18.20
2023-09-01T19:31:30.043Z,18.20
2023-09-01T19:33:58.788Z,18.20
2023-09-01T19:36:28.454Z,18.10
2023-09-01T19:38:56.315Z,18.20
2023-09-01T19:41:24.791Z,18.10
2023-09-01T19:43:53.448Z,18.00
2023-09-01T19:46:23.799Z,18.00
2023-09-01T19:48:53.316Z,18.00
2023-09-01T19:51:21.167Z,17.90
2023-09-01T19:53:49.044Z,17.90
2023-09-01T19:56:17.571Z,17.90
2023-09-01T19:58:46.195Z,17.90
2023-09-01T20:01:17.610Z,17.80
2023-09-01T20:03:47.046Z,17.70
2023-09-01T20:06:15.269Z,17.70
2023-09-01T20:08:43.340Z,17.60
2023-09-01T20:11:12.308Z,17.60
2023-09-01T20:13:40.138Z,17.60
2023-09-01T20:16:08.012Z,17.80
2023-09-01T20:18:35.902Z,17.80
2023-09-01T20:21:05.262Z,17.80
2023-09-01T20:23:33.075Z,18.10
2023-09-01T20:26:00.927Z,18.00
2023-09-01T20:28:28.736Z,18.00
2023-09-01T20:30:56.636Z,17.90
2023-09-01T20:33:24.565Z,17.70
2023-09-01T20:35:52.406Z,17.50
2023-09-01T20:38:21.565Z,17.60
2023-09-01T20:40:49.389Z,17.50
2023-09-01T20:43:17.391Z,17.60
2023-09-01T20:45:45.508Z,17.40
2023-09-01T20:48:13.423Z,17.20
2023-09-01T20:50:43.221Z,17.10
2023-09-01T20:53:11.154Z,17.00
2023-09-01T20:55:40.955Z,16.90
2023-09-01T20:58:08.810Z,16.90
2023-09-01T21:00:37.254Z,16.90
2023-09-01T21:03:06.817Z,16.90
2023-09-01T21:05:34.832Z,16.90
2023-09-01T21:08:02.757Z,16.90
2023-09-01T21:10:30.620Z,16.90
2023-09-01T21:12:59.799Z,16.80
2023-09-01T21:15:28.032Z,16.90
2023-09-01T21:17:56.074Z,16.70
2023-09-01T21:20:24.309Z,16.80
2023-09-01T21:22:52.132Z,16.70
2023-09-01T21:25:21.489Z,16.60
2023-09-01T21:27:49.383Z,16.60
2023-09-01T21:30:19.257Z,16.70
2023-09-01T21:32:47.837Z,16.60
2023-09-01T21:35:16.364Z,16.60
2023-09-01T21:37:44.249Z,16.70
2023-09-01T21:40:12.777Z,16.60
2023-09-01T21:42:40.785Z,16.60
2023-09-01T21:45:09.641Z,16.50
2023-09-01T21:47:38.834Z,16.30
2023-09-01T21:50:07.800Z,16.30
2023-09-01T21:52:35.621Z,16.40
2023-09-01T21:55:03.499Z,16.40
2023-09-01T21:57:31.389Z,16.10
2023-09-01T21:59:59.336Z,16.10
2023-09-01T22:02:27.292Z,16.20
2023-09-01T22:04:56.507Z,16.10
2023-09-01T22:07:24.333Z,16.00
2023-09-01T22:09:54.109Z,15.90
2023-09-01T22:12:21.936Z,15.80
2023-09-01T22:14:50.325Z,15.70
2023-09-01T22:17:18.514Z,15.70
2023-09-01T22:19:47.654Z,15.70
2023-09-01T22:22:16.887Z,15.70
2023-09-01T22:24:44.750Z,15.60
2023-09-01T22:27:12.601Z,15.80
2023-09-01T22:29:41.283Z,15.70
2023-09-01T22:32:09.865Z,15.70
2023-09-01T22:34:37.747Z,15.50
2023-09-01T22:37:05.737Z,15.40
2023-09-01T22:39:34.905Z,15.30
2023-09-01T22:42:02.774Z,15.30
2023-09-01T22:44:31.726Z,15.30
2023-09-01T22:46:59.571Z,15.30
2023-09-01T22:49:27.462Z,15.30
2023-09-01T22:51:55.262Z,15.20
2023-09-01T22:54:23.073Z,15.30
2023-09-01T22:56:52.263Z,15.30
2023-09-01T22:59:20.083Z,15.60
2023-09-01T23:01:47.956Z,15.60
2023-09-01T23:04:16.486Z,15.60
2023-09-01T23:06:44.569Z,15.80
2023-09-01T23:09:12.390Z,15.80
2023-09-01T23:11:40.205Z,15.90
2023-09-01T23:14:09.349Z,15.80
2023-09-01T23:16:37.869Z,15.40
2023-09-01T23:19:05.884Z,15.10
2023-09-01T23:21:33.737Z,15.00
2023-09-01T23:24:01.543Z,14.80
2023-09-01T23:26:29.480Z,14.60
2023-09-01T23:28:58.428Z,14.60
2023-09-01T23:31:27.792Z,14.60
2023-09-01T23:33:55.818Z,14.70
2023-09-01T23:36:23.713Z,14.70
2023-09-01T23:38:51.640Z,14.70
2023-09-01T23:41:19.464Z,14.60
2023-09-01T23:43:47.268Z,14.60
2023-09-01T23:46:15.096Z,14.50
2023-09-01T23:48:44.277Z,14.50
2023-09-01T23:51:12.098Z,14.60
2023-09-01T23:53:39.923Z,14.60
2023-09-01T23:56:07.920Z,14.60
2023-09-01T23:58:35.733Z,14.60
